createdAt,value
2022-11-26T00:01:19.258Z,24.03
2022-11-26T00:03:47.279Z,17.57
2022-11-26T00:06:22.247Z,23.80
2022-11-26T00:08:48.929Z,16.93
2022-11-26T00:11:16.911Z,26.80
2022-11-26T00:13:43.595Z,27.07
2022-11-26T00:16:13.542Z,12.23
2022-11-26T00:18:41.197Z,24.20
2022-11-26T00:21:21.143Z,34.87
2022-11-26T00:23:47.903Z,21.87
2022-11-26T00:26:18.142Z,37.67
2022-11-26T00:28:55.437Z,26.87
2022-11-26T00:31:22.940Z,28.43
2022-11-26T00:33:49.710Z,16.83
2022-11-26T00:36:25.594Z,27.37
2022-11-26T00:38:56.250Z,30.87
2022-11-26T00:41:24.940Z,20.70
2022-11-26T00:43:51.576Z,27.63
2022-11-26T00:46:20.611Z,18.07
2022-11-26T00:48:47.433Z,25.03
2022-11-26T00:51:21.000Z,19.60
2022-11-26T00:53:48.312Z,25.50
2022-11-26T00:56:18.381Z,22.80
2022-11-26T00:58:46.471Z,19.00
2022-11-26T01:01:17.807Z,16.97
2022-11-26T01:03:44.890Z,33.90
2022-11-26T01:06:28.617Z,27.20
2022-11-26T01:08:55.207Z,31.43
2022-11-26T01:11:23.256Z,13.63
2022-11-26T01:13:51.423Z,15.33
2022-11-26T01:16:27.755Z,24.87
2022-11-26T01:18:56.495Z,25.27
2022-11-26T01:21:25.755Z,25.13
2022-11-26T01:23:52.555Z,28.10
2022-11-26T01:26:27.627Z,26.63
2022-11-26T01:28:54.951Z,26.57
2022-11-26T01:31:24.783Z,29.50
2022-11-26T01:33:51.784Z,30.93
2022-11-26T01:36:31.997Z,20.73
2022-11-26T01:39:01.903Z,36.77
2022-11-26T01:41:31.397Z,25.20
2022-11-26T01:43:59.800Z,20.27
2022-11-26T01:46:30.042Z,24.90
2022-11-26T01:49:23.077Z,26.70
2022-11-26T01:52:01.978Z,22.70
2022-11-26T01:54:28.853Z,22.43
2022-11-26T01:56:58.317Z,24.07
2022-11-26T01:59:39.687Z,24.30
2022-11-26T02:02:06.329Z,30.23
2022-11-26T02:04:46.580Z,40.47
2022-11-26T02:07:13.224Z,40.00
2022-11-26T02:09:40.441Z,30.97
2022-11-26T02:12:07.146Z,35.27
2022-11-26T02:14:40.464Z,40.13
2022-11-26T02:17:29.363Z,25.43
2022-11-26T02:20:41.363Z,27.87
2022-11-26T02:23:14.105Z,35.77
2022-11-26T02:25:48.447Z,38.50
2022-11-26T02:28:57.440Z,32.67
2022-11-26T02:31:41.866Z,31.50
2022-11-26T02:34:24.339Z,30.03
2022-11-26T02:36:57.184Z,28.57
2022-11-26T02:39:26.584Z,32.40
2022-11-26T02:41:56.002Z,36.30
2022-11-26T02:44:26.178Z,25.50
2022-11-26T02:47:01.084Z,25.33
2022-11-26T02:49:29.829Z,19.10
2022-11-26T02:51:59.333Z,18.20
2022-11-26T02:54:28.662Z,21.33
2022-11-26T02:56:57.298Z,20.73
2022-11-26T02:59:24.104Z,18.20
2022-11-26T03:01:57.659Z,20.07
2022-11-26T03:04:33.608Z,23.13
2022-11-26T03:07:03.444Z,24.53
2022-11-26T03:09:48.349Z,22.90
2022-11-26T03:12:15.036Z,23.70
2022-11-26T03:14:41.720Z,20.23
2022-11-26T03:17:08.365Z,21.13
2022-11-26T03:19:35.000Z,20.13
2022-11-26T03:22:01.936Z,25.80
2022-11-26T03:24:28.616Z,20.27
2022-11-26T03:26:55.242Z,19.83
2022-11-26T03:29:21.840Z,23.30
2022-11-26T03:31:48.565Z,25.00
2022-11-26T03:34:15.254Z,26.90
2022-11-26T03:36:41.878Z,27.57
2022-11-26T03:39:08.512Z,29.17
2022-11-26T03:41:35.216Z,25.53
2022-11-26T03:44:01.840Z,22.23
2022-11-26T03:46:28.431Z,22.83
2022-11-26T03:48:55.095Z,25.13
2022-11-26T03:51:21.689Z,23.77
2022-11-26T03:53:48.298Z,20.27
2022-11-26T03:56:15.510Z,30.20
2022-11-26T03:58:42.197Z,17.13
2022-11-26T04:01:10.291Z,19.57
2022-11-26T04:03:37.431Z,26.40
2022-11-26T04:06:04.425Z,25.63
2022-11-26T04:08:31.107Z,18.87
2022-11-26T04:10:58.034Z,34.93
2022-11-26T04:13:24.709Z,29.40
2022-11-26T04:15:51.787Z,26.57
2022-11-26T04:18:18.842Z,26.70
2022-11-26T04:20:49.988Z,18.00
2022-11-26T04:23:19.824Z,32.00
2022-11-26T04:25:46.558Z,17.90
2022-11-26T04:28:15.074Z,30.43
2022-11-26T04:30:42.495Z,23.93
2022-11-26T04:33:09.316Z,24.87
2022-11-26T04:35:35.898Z,28.00
2022-11-26T04:38:02.497Z,42.67
2022-11-26T04:40:29.148Z,28.33
2022-11-26T04:42:55.756Z,22.07
2022-11-26T04:45:22.393Z,16.77
2022-11-26T04:47:49.001Z,19.70
2022-11-26T04:50:15.663Z,28.27
2022-11-26T04:52:42.305Z,23.47
2022-11-26T04:55:09.294Z,27.50
2022-11-26T04:57:36.135Z,34.17
2022-11-26T05:00:03.039Z,32.37
2022-11-26T05:02:29.712Z,25.80
2022-11-26T05:04:56.462Z,25.97
2022-11-26T05:07:23.197Z,16.40
2022-11-26T05:09:49.840Z,30.10
2022-11-26T05:12:16.648Z,27.67
2022-11-26T05:14:43.344Z,21.40
2022-11-26T05:17:09.993Z,26.47
2022-11-26T05:19:36.613Z,22.30
2022-11-26T05:22:03.278Z,20.57
2022-11-26T05:24:29.884Z,17.67
2022-11-26T05:26:57.294Z,20.87
2022-11-26T05:29:25.846Z,22.60
2022-11-26T05:31:52.867Z,31.40
2022-11-26T05:34:19.579Z,17.77
2022-11-26T05:36:46.312Z,22.50
2022-11-26T05:39:12.911Z,17.90
2022-11-26T05:41:39.507Z,19.93
2022-11-26T05:44:06.233Z,16.23
2022-11-26T05:46:32.993Z,21.93
2022-11-26T05:48:59.685Z,23.03
2022-11-26T05:51:26.275Z,21.13
2022-11-26T05:53:52.890Z,14.13
2022-11-26T05:56:19.578Z,20.83
2022-11-26T05:58:46.222Z,19.60
2022-11-26T06:01:12.836Z,22.03
2022-11-26T06:03:39.622Z,17.57
2022-11-26T06:06:06.740Z,21.70
2022-11-26T06:08:33.414Z,20.37
2022-11-26T06:11:00.028Z,26.30
2022-11-26T06:13:26.662Z,22.33
2022-11-26T06:15:53.492Z,22.60
2022-11-26T06:18:20.112Z,26.33
2022-11-26T06:20:46.695Z,21.63
2022-11-26T06:23:13.303Z,21.23
2022-11-26T06:25:40.879Z,17.70
2022-11-26T06:28:07.812Z,20.30
2022-11-26T06:30:34.478Z,20.13
2022-11-26T06:33:01.071Z,18.30
2022-11-26T06:35:27.737Z,23.30
2022-11-26T06:37:54.337Z,23.97
2022-11-26T06:40:21.164Z,38.30
2022-11-26T06:42:49.990Z,20.20
2022-11-26T06:45:16.832Z,19.97
2022-11-26T06:47:45.356Z,17.53
2022-11-26T06:50:12.031Z,18.53
2022-11-26T06:52:38.763Z,30.63
2022-11-26T06:55:05.815Z,19.90
2022-11-26T06:57:32.449Z,22.10
2022-11-26T06:59:59.078Z,31.60
2022-11-26T07:02:25.788Z,21.40
2022-11-26T07:04:52.545Z,21.60
2022-11-26T07:07:19.325Z,24.00
2022-11-26T07:09:45.983Z,20.00
2022-11-26T07:12:12.679Z,22.70
2022-11-26T07:14:39.538Z,28.50
2022-11-26T07:17:06.331Z,27.50
2022-11-26T07:19:32.947Z,22.03
2022-11-26T07:21:59.609Z,22.10
2022-11-26T07:24:26.239Z,22.87
2022-11-26T07:26:52.913Z,26.87
2022-11-26T07:29:19.499Z,17.40
2022-11-26T07:31:46.149Z,14.10
2022-11-26T07:34:12.831Z,21.87
2022-11-26T07:36:43.052Z,25.23
2022-11-26T07:39:11.724Z,21.27
2022-11-26T07:41:38.996Z,18.07
2022-11-26T07:44:05.703Z,31.20
2022-11-26T07:46:32.507Z,26.87
2022-11-26T07:48:59.141Z,24.50
2022-11-26T07:51:31.182Z,22.23
2022-11-26T07:53:59.729Z,29.07
2022-11-26T07:56:27.039Z,39.53
2022-11-26T07:58:53.956Z,26.80
2022-11-26T08:01:23.897Z,27.97
2022-11-26T08:03:52.040Z,27.33
2022-11-26T08:06:21.715Z,25.77
2022-11-26T08:08:48.823Z,23.43
2022-11-26T08:11:23.976Z,23.73
2022-11-26T08:13:56.244Z,26.33
2022-11-26T08:16:22.958Z,32.63
2022-11-26T08:18:57.197Z,25.50
2022-11-26T08:21:24.272Z,26.20
2022-11-26T08:23:52.417Z,29.83
2022-11-26T08:26:25.088Z,25.73
2022-11-26T08:28:58.615Z,38.20
2022-11-26T08:31:27.556Z,26.50
2022-11-26T08:33:58.444Z,33.77
2022-11-26T08:36:26.352Z,31.87
2022-11-26T08:38:52.962Z,30.57
2022-11-26T08:41:19.827Z,32.57
2022-11-26T08:46:33.219Z,29.40
2022-11-26T08:48:59.889Z,25.57
2022-11-26T08:51:26.602Z,35.90
2022-11-26T08:53:53.264Z,24.30
2022-11-26T08:56:19.933Z,27.70
2022-11-26T08:58:48.744Z,28.37
2022-11-26T09:01:23.220Z,28.30
2022-11-26T09:03:55.686Z,36.87
2022-11-26T09:06:24.154Z,34.67
2022-11-26T09:09:09.721Z,34.03
2022-11-26T09:11:39.256Z,55.00
2022-11-26T09:14:06.677Z,48.53
2022-11-26T09:16:33.511Z,39.90
2022-11-26T09:19:01.625Z,46.13
2022-11-26T09:21:28.488Z,40.00
2022-11-26T09:23:55.540Z,44.67
2022-11-26T09:26:22.967Z,36.97
2022-11-26T09:28:49.817Z,41.53
2022-11-26T09:31:17.639Z,37.27
2022-11-26T09:33:44.885Z,30.00
2022-11-26T09:36:14.079Z,43.23
2022-11-26T09:38:41.105Z,29.47
2022-11-26T09:41:14.552Z,37.97
2022-11-26T09:44:02.688Z,38.90
2022-11-26T09:47:10.552Z,28.40
2022-11-26T09:49:54.931Z,34.13
2022-11-26T09:52:25.304Z,37.20
2022-11-26T09:54:57.887Z,31.70
2022-11-26T09:57:43.401Z,36.47
2022-11-26T10:00:24.481Z,38.93
2022-11-26T10:02:58.038Z,27.87
2022-11-26T10:05:56.696Z,28.07
2022-11-26T10:08:32.238Z,28.10
2022-11-26T10:11:10.236Z,25.63
2022-11-26T10:13:55.014Z,23.43
2022-11-26T10:16:29.473Z,26.17
2022-11-26T10:19:06.597Z,29.67
2022-11-26T10:22:00.981Z,39.57
2022-11-26T10:24:38.421Z,22.50
2022-11-26T10:27:13.865Z,28.47
2022-11-26T10:29:50.547Z,19.40
2022-11-26T10:32:32.241Z,22.17
2022-11-26T10:34:59.280Z,23.83
2022-11-26T10:37:28.213Z,27.23
2022-11-26T10:40:11.282Z,25.90
2022-11-26T10:42:44.872Z,18.77
2022-11-26T10:45:24.080Z,21.17
2022-11-26T10:47:50.777Z,28.93
2022-11-26T10:50:46.031Z,22.60
2022-11-26T10:53:06.980Z,15.87
2022-11-26T10:55:41.216Z,24.10
2022-11-26T10:58:16.148Z,27.60
2022-11-26T11:00:48.771Z,22.63
2022-11-26T11:03:59.844Z,30.10
2022-11-26T11:06:20.979Z,21.73
2022-11-26T11:08:49.708Z,21.20
2022-11-26T11:11:21.489Z,18.10
2022-11-26T11:13:48.924Z,16.43
2022-11-26T11:16:29.471Z,21.60
2022-11-26T11:19:02.311Z,33.90
2022-11-26T11:21:35.526Z,22.30
2022-11-26T11:24:15.673Z,26.07
2022-11-26T11:26:48.167Z,30.17
2022-11-26T11:29:30.405Z,25.60
2022-11-26T11:31:57.814Z,30.60
2022-11-26T11:34:42.712Z,29.43
2022-11-26T11:37:21.811Z,30.17
2022-11-26T11:40:05.242Z,35.33
2022-11-26T11:42:32.351Z,30.63
2022-11-26T11:45:00.991Z,25.53
2022-11-26T11:47:37.357Z,38.67
2022-11-26T11:50:29.627Z,28.97
2022-11-26T11:53:18.073Z,27.50
2022-11-26T11:56:18.771Z,29.63
2022-11-26T11:59:16.040Z,34.67
2022-11-26T12:02:16.198Z,33.60
2022-11-26T12:04:55.892Z,39.17
2022-11-26T12:07:29.440Z,38.47
2022-11-26T12:10:02.152Z,38.23
2022-11-26T12:12:39.839Z,38.07
2022-11-26T12:15:15.123Z,41.53
2022-11-26T12:17:48.777Z,48.57
2022-11-26T12:20:24.319Z,37.97
2022-11-26T12:23:21.232Z,36.40
2022-11-26T12:25:54.059Z,39.30
2022-11-26T12:28:27.197Z,40.90
2022-11-26T12:30:59.339Z,34.93
2022-11-26T12:33:34.234Z,41.43
2022-11-26T12:36:10.303Z,45.00
2022-11-26T12:38:47.315Z,40.30
2022-11-26T12:41:34.749Z,39.70
2022-11-26T12:44:24.762Z,38.30
2022-11-26T12:47:10.819Z,37.60
2022-11-26T12:50:07.668Z,38.70
2022-11-26T12:52:54.484Z,39.40
2022-11-26T12:55:32.915Z,39.73
2022-11-26T12:58:16.297Z,40.40
2022-11-26T13:00:43.573Z,44.67
2022-11-26T13:03:15.860Z,45.93
2022-11-26T13:06:07.859Z,43.13
2022-11-26T13:08:49.792Z,40.77
2022-11-26T13:11:46.875Z,31.50
2022-11-26T13:14:40.812Z,43.80
2022-11-26T13:17:15.315Z,33.90
2022-11-26T13:19:58.698Z,32.53
2022-11-26T13:22:52.631Z,39.00
2022-11-26T13:26:03.057Z,40.87
2022-11-26T13:28:59.101Z,45.33
2022-11-26T13:31:40.411Z,46.73
2022-11-26T13:34:25.143Z,38.63
2022-11-26T13:37:00.171Z,33.37
2022-11-26T13:40:02.171Z,42.83
2022-11-26T13:42:54.767Z,37.80
2022-11-26T13:45:34.866Z,43.87
2022-11-26T13:48:10.511Z,43.50
2022-11-26T13:50:54.860Z,40.53
2022-11-26T13:53:31.986Z,46.80
2022-11-26T13:56:05.078Z,38.60
2022-11-26T13:58:42.887Z,43.30
2022-11-26T14:01:37.227Z,55.17
2022-11-26T14:04:09.711Z,45.07
2022-11-26T14:06:36.564Z,39.10
2022-11-26T14:09:05.690Z,40.50
2022-11-26T14:11:41.620Z,44.93
2022-11-26T14:14:26.400Z,40.90
2022-11-26T14:17:02.227Z,37.80
2022-11-26T14:19:40.921Z,50.70
2022-11-26T14:22:19.855Z,44.53
2022-11-26T14:24:49.557Z,55.23
2022-11-26T14:27:21.182Z,44.47
2022-11-26T14:29:54.738Z,42.80
2022-11-26T14:32:26.825Z,49.17
2022-11-26T14:34:57.558Z,45.90
2022-11-26T14:37:29.333Z,49.87
2022-11-26T14:40:06.520Z,47.47
2022-11-26T14:42:33.264Z,53.40
2022-11-26T14:45:18.522Z,44.53
2022-11-26T14:47:48.786Z,41.63
2022-11-26T14:50:23.992Z,44.83
2022-11-26T14:52:58.491Z,42.20
2022-11-26T14:55:28.879Z,62.70
2022-11-26T14:58:02.744Z,52.20
2022-11-26T15:00:33.084Z,41.27
2022-11-26T15:03:02.963Z,44.53
2022-11-26T15:05:34.103Z,58.80
2022-11-26T15:08:06.324Z,44.13
2022-11-26T15:10:37.564Z,47.17
2022-11-26T15:13:14.528Z,35.17
2022-11-26T15:15:55.767Z,39.90
2022-11-26T15:18:31.260Z,50.80
2022-11-26T15:20:59.942Z,38.97
2022-11-26T15:23:39.296Z,42.13
2022-11-26T15:26:06.347Z,45.67
2022-11-26T15:28:38.673Z,42.83
2022-11-26T15:31:08.381Z,52.30
2022-11-26T15:33:37.006Z,62.20
2022-11-26T15:36:08.168Z,53.67
2022-11-26T15:38:57.974Z,60.87
2022-11-26T15:41:25.958Z,52.67
2022-11-26T15:43:55.773Z,53.00
2022-11-26T15:46:25.754Z,49.67
2022-11-26T15:49:00.893Z,50.03
2022-11-26T15:51:37.342Z,61.17
2022-11-26T15:54:23.833Z,64.50
2022-11-26T15:56:55.017Z,48.03
2022-11-26T15:59:23.980Z,53.83
2022-11-26T16:01:50.659Z,65.47
2022-11-26T16:04:38.913Z,59.60
2022-11-26T16:07:14.799Z,53.20
2022-11-26T16:09:42.215Z,66.40
2022-11-26T16:12:32.940Z,70.00
2022-11-26T16:15:27.317Z,57.37
2022-11-26T16:17:54.055Z,52.47
2022-11-26T16:20:23.766Z,61.37
2022-11-26T16:22:53.362Z,68.53
2022-11-26T16:25:24.208Z,68.13
2022-11-26T16:28:11.772Z,69.20
2022-11-26T16:30:40.244Z,63.13
2022-11-26T16:33:07.259Z,66.27
2022-11-26T16:35:50.426Z,63.20
2022-11-26T16:38:22.622Z,66.00
2022-11-26T16:40:50.092Z,75.67
2022-11-26T16:43:16.888Z,70.17
2022-11-26T16:45:43.932Z,89.87
2022-11-26T16:48:22.340Z,61.80
2022-11-26T16:50:49.153Z,73.83
2022-11-26T16:53:15.748Z,61.93
2022-11-26T16:55:42.358Z,64.00
2022-11-26T16:58:35.130Z,67.13
2022-11-26T17:01:02.056Z,72.10
2022-11-26T17:03:32.834Z,62.50
2022-11-26T17:06:09.880Z,63.87
2022-11-26T17:08:36.536Z,56.70
2022-11-26T17:11:03.169Z,56.23
2022-11-26T17:13:30.999Z,83.37
2022-11-26T17:15:58.105Z,62.47
2022-11-26T17:18:25.630Z,66.97
2022-11-26T17:20:53.760Z,56.63
2022-11-26T17:23:20.543Z,58.67
2022-11-26T17:25:51.856Z,50.60
2022-11-26T17:28:18.704Z,70.20
2022-11-26T17:30:45.401Z,61.70
2022-11-26T17:33:12.230Z,53.33
2022-11-26T17:35:39.459Z,60.20
2022-11-26T17:38:19.193Z,57.23
2022-11-26T17:40:46.733Z,50.37
2022-11-26T17:43:14.024Z,57.57
2022-11-26T17:45:41.480Z,59.10
2022-11-26T17:48:13.044Z,62.30
2022-11-26T17:50:40.572Z,61.07
2022-11-26T17:53:07.287Z,74.23
2022-11-26T17:55:34.165Z,66.97
2022-11-26T17:58:00.780Z,52.27
2022-11-26T18:00:28.929Z,46.40
2022-11-26T18:02:56.633Z,54.23
2022-11-26T18:05:24.191Z,61.03
2022-11-26T18:07:51.343Z,71.10
2022-11-26T18:10:19.889Z,61.67
2022-11-26T18:12:46.888Z,59.83
2022-11-26T18:15:19.085Z,62.57
2022-11-26T18:17:48.205Z,65.73
2022-11-26T18:20:18.083Z,57.73
2022-11-26T18:22:46.706Z,63.67
2022-11-26T18:25:13.886Z,62.60
2022-11-26T18:27:40.577Z,72.93
2022-11-26T18:30:09.091Z,65.80
2022-11-26T18:32:37.457Z,58.57
2022-11-26T18:35:05.640Z,72.70
2022-11-26T18:37:34.630Z,74.13
2022-11-26T18:40:01.267Z,60.00
2022-11-26T18:42:43.078Z,66.33
2022-11-26T18:45:11.975Z,64.17
2022-11-26T18:47:39.023Z,65.60
2022-11-26T18:50:06.489Z,56.00
2022-11-26T18:52:33.076Z,70.20
2022-11-26T18:55:00.009Z,53.87
2022-11-26T18:57:26.785Z,53.90
2022-11-26T18:59:53.374Z,69.33
2022-11-26T19:02:20.141Z,79.60
2022-11-26T19:04:46.831Z,67.33
2022-11-26T19:07:14.234Z,70.10
2022-11-26T19:09:41.649Z,65.23
2022-11-26T19:12:08.742Z,60.73
2022-11-26T19:14:35.414Z,64.80
2022-11-26T19:17:02.270Z,56.73
2022-11-26T19:19:29.164Z,75.73
2022-11-26T19:22:01.017Z,74.27
2022-11-26T19:24:28.637Z,72.77
2022-11-26T19:26:55.280Z,79.63
2022-11-26T19:29:21.987Z,70.07
2022-11-26T19:31:48.651Z,71.73
2022-11-26T19:34:16.288Z,66.67
2022-11-26T19:36:45.658Z,72.97
2022-11-26T19:39:12.295Z,61.33
2022-11-26T19:41:38.949Z,56.23
2022-11-26T19:44:07.003Z,71.00
2022-11-26T19:46:36.731Z,85.97
2022-11-26T19:49:03.466Z,58.83
2022-11-26T19:51:30.098Z,70.47
2022-11-26T19:53:56.787Z,61.77
2022-11-26T19:56:28.923Z,64.50
2022-11-26T19:59:00.219Z,83.57
2022-11-26T20:01:30.451Z,67.73
2022-11-26T20:03:59.569Z,81.90
2022-11-26T20:06:27.887Z,64.50
2022-11-26T20:08:55.601Z,61.67
2022-11-26T20:11:23.122Z,67.50
2022-11-26T20:13:50.583Z,56.50
2022-11-26T20:16:20.575Z,75.50
2022-11-26T20:18:47.556Z,64.53
2022-11-26T20:21:17.072Z,68.33
2022-11-26T20:23:43.747Z,70.67
2022-11-26T20:26:19.306Z,69.73
2022-11-26T20:28:46.143Z,72.80
2022-11-26T20:31:18.192Z,77.13
2022-11-26T20:33:47.313Z,64.90
2022-11-26T20:36:16.274Z,68.47
2022-11-26T20:38:42.971Z,73.50
2022-11-26T20:41:11.792Z,70.20
2022-11-26T20:43:38.879Z,63.23
2022-11-26T20:46:07.622Z,71.10
2022-11-26T20:48:36.149Z,79.47
2022-11-26T20:51:05.110Z,68.17
2022-11-26T20:53:33.449Z,71.53
2022-11-26T20:56:00.075Z,60.43
2022-11-26T20:58:27.219Z,77.00
2022-11-26T21:00:54.787Z,69.50
2022-11-26T21:03:23.099Z,72.87
2022-11-26T21:05:50.310Z,66.43
2022-11-26T21:08:18.294Z,76.00
2022-11-26T21:10:44.966Z,70.13
2022-11-26T21:13:16.348Z,73.23
2022-11-26T21:15:44.892Z,59.87
2022-11-26T21:18:11.539Z,71.87
2022-11-26T21:20:42.275Z,73.83
2022-11-26T21:23:09.989Z,65.40
2022-11-26T21:25:41.403Z,80.47
2022-11-26T21:28:09.300Z,61.13
2022-11-26T21:30:37.300Z,68.37
2022-11-26T21:33:08.983Z,71.77
2022-11-26T21:35:37.079Z,75.90
2022-11-26T21:38:05.204Z,67.20
2022-11-26T21:40:32.902Z,59.53
2022-11-26T21:42:59.488Z,52.57
2022-11-26T21:45:27.613Z,65.53
2022-11-26T21:47:54.420Z,76.37
2022-11-26T21:50:21.206Z,80.13
2022-11-26T21:52:47.951Z,62.07
2022-11-26T21:55:14.964Z,71.53
2022-11-26T21:57:41.641Z,79.97
2022-11-26T22:00:09.042Z,61.67
2022-11-26T22:02:35.952Z,60.77
2022-11-26T22:05:02.692Z,57.57
2022-11-26T22:07:30.619Z,63.57
2022-11-26T22:09:57.551Z,78.93
2022-11-26T22:12:24.171Z,52.80
2022-11-26T22:14:50.744Z,54.67
2022-11-26T22:17:17.347Z,60.47
2022-11-26T22:19:43.992Z,60.17
2022-11-26T22:22:10.660Z,64.43
2022-11-26T22:24:37.346Z,70.33
2022-11-26T22:27:04.152Z,53.23
2022-11-26T22:29:30.997Z,64.20
2022-11-26T22:31:57.632Z,54.70
2022-11-26T22:34:26.004Z,54.70
2022-11-26T22:36:52.703Z,58.57
2022-11-26T22:39:19.993Z,58.73
2022-11-26T22:41:47.935Z,61.07
2022-11-26T22:44:15.819Z,58.20
2022-11-26T22:46:42.523Z,54.17
2022-11-26T22:49:15.787Z,62.53
2022-11-26T22:51:42.747Z,56.40
2022-11-26T22:54:12.734Z,57.20
2022-11-26T22:56:39.898Z,66.20
2022-11-26T22:59:08.304Z,50.27
2022-11-26T23:01:36.385Z,60.23
2022-11-26T23:04:05.647Z,62.90
2022-11-26T23:06:35.159Z,55.20
2022-11-26T23:09:04.693Z,51.83
2022-11-26T23:11:37.854Z,59.77
2022-11-26T23:14:07.237Z,62.93
2022-11-26T23:16:35.676Z,52.30
2022-11-26T23:19:03.617Z,59.40
2022-11-26T23:21:35.376Z,56.87
2022-11-26T23:24:02.021Z,59.60
2022-11-26T23:26:31.804Z,50.57
2022-11-26T23:29:00.539Z,60.07
2022-11-26T23:31:30.431Z,48.97
2022-11-26T23:33:57.554Z,49.20
2022-11-26T23:36:25.129Z,55.43
2022-11-26T23:38:52.567Z,52.87
2022-11-26T23:41:19.207Z,48.30
2022-11-26T23:43:46.099Z,57.37
2022-11-26T23:46:24.895Z,46.50
2022-11-26T23:48:51.960Z,44.90
2022-11-26T23:51:22.232Z,40.50
2022-11-26T23:53:50.476Z,53.27
2022-11-26T23:56:25.604Z,39.10
2022-11-26T23:58:55.103Z,39.50
